Time;durP1;ratioP1;P1;durP2;ratioP2;P2;SDS_P1;SDS_P2;PMS_P1;PMS_P2;Temp;Humidity;BMP_temperature;BMP_pressure;BME280_temperature;BME280_humidity;BME280_pressure;Samples;Min_cycle;Max_cycle;Signal;HPM_P1;HPM_P2
2022/07/26 00:01:17;;;;;;;0.00;0.00;;;18.80;79.50;;;;;;5049306;28;20045;-68
2022/07/26 00:03:43;;;;;;;0.00;0.00;;;18.80;79.60;;;;;;5049535;28;20497;-69
2022/07/26 00:06:09;;;;;;;4.00;0.43;;;18.70;79.50;;;;;;5049515;28;20048;-68
2022/07/26 00:08:34;;;;;;;0.05;0.05;;;18.70;79.60;;;;;;5049522;28;20044;-68
2022/07/26 00:11:00;;;;;;;0.00;0.00;;;18.70;79.70;;;;;;5049747;28;20485;-68
2022/07/26 00:13:26;;;;;;;0.00;0.00;;;18.60;79.80;;;;;;5049257;28;20452;-68
2022/07/26 00:15:51;;;;;;;0.00;0.00;;;18.70;79.90;;;;;;5048926;28;20508;-68
2022/07/26 00:18:17;;;;;;;0.10;0.10;;;18.70;79.70;;;;;;5049561;28;20051;-69
2022/07/26 00:20:43;;;;;;;0.00;0.00;;;18.60;79.80;;;;;;5049570;28;20520;-68
2022/07/26 00:23:09;;;;;;;0.00;0.00;;;18.60;80.20;;;;;;5049299;28;20041;-68
2022/07/26 00:25:34;;;;;;;0.00;0.00;;;18.60;80.40;;;;;;5049831;28;20041;-68
2022/07/26 00:28:00;;;;;;;0.00;0.00;;;18.60;80.30;;;;;;5049300;28;20124;-68
2022/07/26 00:30:26;;;;;;;0.00;0.00;;;18.60;80.50;;;;;;5049331;28;20375;-69
2022/07/26 00:32:51;;;;;;;0.00;0.00;;;18.60;80.50;;;;;;5049639;28;20041;-68
2022/07/26 00:35:18;;;;;;;0.10;0.10;;;18.60;80.70;;;;;;5048834;28;20516;-68
2022/07/26 00:37:44;;;;;;;0.00;0.00;;;18.60;81.00;;;;;;5049268;28;20492;-68
2022/07/26 00:40:10;;;;;;;0.00;0.00;;;18.60;80.80;;;;;;5031193;28;20057;-68
2022/07/26 00:42:36;;;;;;;0.00;0.00;;;18.60;80.80;;;;;;5049179;28;20068;-68
2022/07/26 00:45:04;;;;;;;0.00;0.00;;;18.60;81.20;;;;;;5030935;28;20041;-68
2022/07/26 00:47:30;;;;;;;0.00;0.00;;;18.60;81.10;;;;;;5049225;28;20079;-68
2022/07/26 00:49:56;;;;;;;0.00;0.00;;;18.60;81.30;;;;;;5048970;28;20653;-68
2022/07/26 00:52:22;;;;;;;0.20;0.20;;;18.60;81.60;;;;;;5031628;28;20040;-68
2022/07/26 00:54:47;;;;;;;0.00;0.00;;;18.60;81.80;;;;;;5049036;28;20098;-68
2022/07/26 00:57:13;;;;;;;0.00;0.00;;;18.60;81.70;;;;;;5048660;28;20045;-68
2022/07/26 00:59:39;;;;;;;0.00;0.00;;;18.60;81.70;;;;;;5049082;28;20041;-68
2022/07/26 01:02:06;;;;;;;0.00;0.00;;;18.60;81.90;;;;;;5048360;28;20055;-68
2022/07/26 01:04:33;;;;;;;0.00;0.00;;;18.70;82.10;;;;;;5048872;28;20127;-68
2022/07/26 01:06:59;;;;;;;0.00;0.00;;;18.60;82.40;;;;;;5048651;28;20494;-68
2022/07/26 01:09:25;;;;;;;0.00;0.00;;;18.60;82.60;;;;;;5030873;28;20150;-68
2022/07/26 01:11:50;;;;;;;0.00;0.00;;;18.60;82.50;;;;;;5031299;28;20513;-68
2022/07/26 01:14:22;;;;;;;0.00;0.00;;;18.60;82.50;;;;;;5047576;28;20072;-68
2022/07/26 01:16:49;;;;;;;0.00;0.00;;;18.60;82.60;;;;;;5048776;28;20037;-68
2022/07/26 01:19:15;;;;;;;0.00;0.00;;;18.60;82.70;;;;;;5049045;28;20562;-68
2022/07/26 01:21:40;;;;;;;0.00;0.00;;;18.70;82.80;;;;;;5048171;28;20063;-69
2022/07/26 01:24:06;;;;;;;0.00;0.00;;;18.60;82.90;;;;;;5047354;28;20513;-69
2022/07/26 01:26:32;;;;;;;0.00;0.00;;;18.60;82.80;;;;;;5048369;28;20081;-68
2022/07/26 01:28:58;;;;;;;0.00;0.00;;;18.60;82.90;;;;;;5048268;28;20048;-68
2022/07/26 01:31:23;;;;;;;0.03;0.03;;;18.60;83.10;;;;;;5022134;28;20048;-69
2022/07/26 01:33:49;;;;;;;0.00;0.00;;;18.60;82.80;;;;;;5048561;28;20047;-68
2022/07/26 01:36:15;;;;;;;0.00;0.00;;;18.60;83.20;;;;;;5030455;28;20048;-68
2022/07/26 01:38:41;;;;;;;0.00;0.00;;;18.60;83.60;;;;;;5048338;28;20063;-68
2022/07/26 01:41:08;;;;;;;0.00;0.00;;;18.60;83.70;;;;;;5048400;28;20060;-68
2022/07/26 01:43:35;;;;;;;0.00;0.00;;;18.60;84.10;;;;;;5048315;28;20049;-68
2022/07/26 01:46:01;;;;;;;0.00;0.00;;;18.50;84.00;;;;;;5030924;28;20048;-68
2022/07/26 01:48:26;;;;;;;0.00;0.00;;;18.60;83.90;;;;;;5047992;28;20563;-68
2022/07/26 01:50:52;;;;;;;0.00;0.00;;;18.50;84.10;;;;;;5031186;28;20040;-68
2022/07/26 01:53:18;;;;;;;0.00;0.00;;;18.50;84.40;;;;;;5047064;28;20155;-68
2022/07/26 01:55:43;;;;;;;0.00;0.00;;;18.50;84.40;;;;;;5036312;28;20383;-68
2022/07/26 01:58:09;;;;;;;0.00;0.00;;;18.50;84.40;;;;;;5037437;28;20029;-68
2022/07/26 02:00:34;;;;;;;0.00;0.00;;;18.50;84.60;;;;;;5012375;28;20037;-68
2022/07/26 02:03:00;;;;;;;0.00;0.00;;;18.40;85.20;;;;;;5048134;28;20098;-68
2022/07/26 02:05:26;;;;;;;0.00;0.00;;;18.30;85.50;;;;;;5047842;28;20052;-68
2022/07/26 02:07:52;;;;;;;0.00;0.00;;;18.20;85.80;;;;;;5047872;28;20048;-69
2022/07/26 02:10:18;;;;;;;0.00;0.00;;;18.10;86.50;;;;;;5029056;28;20094;-68
2022/07/26 02:12:43;;;;;;;0.10;0.10;;;18.10;87.10;;;;;;5047889;28;20118;-68
2022/07/26 02:15:11;;;;;;;0.00;0.00;;;18.00;87.20;;;;;;5048256;28;20040;-69
2022/07/26 02:17:36;;;;;;;0.00;0.00;;;18.00;87.20;;;;;;5048291;28;20049;-68
2022/07/26 02:20:03;;;;;;;0.32;0.32;;;17.90;87.40;;;;;;5048642;28;20540;-68
2022/07/26 02:22:29;;;;;;;0.00;0.00;;;17.80;87.70;;;;;;5047944;28;20045;-69
2022/07/26 02:24:55;;;;;;;0.00;0.00;;;17.80;87.70;;;;;;5047844;28;20067;-68
2022/07/26 02:27:20;;;;;;;0.00;0.00;;;17.80;87.90;;;;;;5051859;28;20122;-69
2022/07/26 02:29:46;;;;;;;0.00;0.00;;;17.80;88.00;;;;;;5051997;28;20134;-68
2022/07/26 02:32:12;;;;;;;0.00;0.00;;;17.70;88.00;;;;;;5051748;28;20052;-69
2022/07/26 02:34:37;;;;;;;0.00;0.00;;;17.70;87.90;;;;;;5051678;28;20037;-69
2022/07/26 02:37:03;;;;;;;0.00;0.00;;;17.60;87.80;;;;;;5051745;28;20047;-69
2022/07/26 02:39:29;;;;;;;0.00;0.00;;;17.70;87.80;;;;;;5051118;28;20515;-69
2022/07/26 02:41:57;;;;;;;0.00;0.00;;;17.60;87.30;;;;;;5051653;28;20164;-69
2022/07/26 02:44:24;;;;;;;0.00;0.00;;;17.60;87.10;;;;;;5051793;28;20045;-69
2022/07/26 02:46:50;;;;;;;0.70;0.52;;;17.50;87.30;;;;;;5051073;28;20126;-68
2022/07/26 02:49:15;;;;;;;0.10;0.10;;;17.50;87.30;;;;;;5051307;28;20160;-68
2022/07/26 02:51:41;;;;;;;0.00;0.00;;;17.50;87.00;;;;;;5051845;28;20474;-69
2022/07/26 02:54:07;;;;;;;0.00;0.00;;;17.60;86.90;;;;;;5049728;28;20048;-69
2022/07/26 02:56:32;;;;;;;0.00;0.00;;;17.40;86.90;;;;;;5047249;28;20043;-68
2022/07/26 02:58:58;;;;;;;0.00;0.00;;;17.40;86.60;;;;;;5051225;28;20044;-69
2022/07/26 03:01:24;;;;;;;0.00;0.00;;;17.40;86.60;;;;;;5033738;28;20098;-69
2022/07/26 03:03:49;;;;;;;0.00;0.00;;;17.40;86.70;;;;;;5038283;28;20038;-69
2022/07/26 03:06:15;;;;;;;0.00;0.00;;;17.40;86.60;;;;;;5040837;28;20044;-69
2022/07/26 03:08:40;;;;;;;0.00;0.00;;;17.30;86.30;;;;;;5030894;28;20044;-68
2022/07/26 03:11:06;;;;;;;0.00;0.00;;;17.30;86.30;;;;;;5036510;28;20037;-68
2022/07/26 03:13:32;;;;;;;0.00;0.00;;;17.20;86.20;;;;;;5034198;28;20041;-69
2022/07/26 03:15:58;;;;;;;0.00;0.00;;;17.20;85.80;;;;;;5045609;28;20098;-69
2022/07/26 03:18:23;;;;;;;0.00;0.00;;;17.20;85.70;;;;;;5021033;28;20045;-68
2022/07/26 03:20:49;;;;;;;0.00;0.00;;;17.20;85.50;;;;;;5037231;28;20490;-68
2022/07/26 03:23:15;;;;;;;0.00;0.00;;;17.20;85.70;;;;;;5021612;28;20045;-68
2022/07/26 03:25:41;;;;;;;0.00;0.00;;;17.20;85.60;;;;;;5023154;28;20068;-68
2022/07/26 03:28:06;;;;;;;0.00;0.00;;;17.10;85.50;;;;;;5031542;28;20041;-69
2022/07/26 03:30:32;;;;;;;0.68;0.68;;;17.10;85.30;;;;;;5046820;28;20131;-69
2022/07/26 03:32:58;;;;;;;0.00;0.00;;;17.10;85.30;;;;;;5030093;28;20517;-69
2022/07/26 03:35:24;;;;;;;0.00;0.00;;;17.10;85.00;;;;;;5035182;28;20084;-69
2022/07/26 03:37:50;;;;;;;0.00;0.00;;;17.10;85.00;;;;;;5047257;28;20505;-69
2022/07/26 03:40:16;;;;;;;0.00;0.00;;;17.10;85.20;;;;;;5041654;28;20056;-69
2022/07/26 03:42:42;;;;;;;0.00;0.00;;;17.10;85.20;;;;;;5035463;28;20077;-68
2022/07/26 03:45:08;;;;;;;0.00;0.00;;;17.10;85.00;;;;;;5040565;28;20076;-69
2022/07/26 03:47:35;;;;;;;0.00;0.00;;;17.20;85.00;;;;;;5036647;28;20044;-69
2022/07/26 03:50:02;;;;;;;0.00;0.00;;;17.10;84.70;;;;;;5029496;28;20494;-68
2022/07/26 03:52:27;;;;;;;0.00;0.00;;;17.10;84.60;;;;;;5035675;28;20138;-69
2022/07/26 03:54:53;;;;;;;0.00;0.00;;;17.00;84.30;;;;;;5043133;28;20033;-68
2022/07/26 03:57:19;;;;;;;0.00;0.00;;;17.00;84.40;;;;;;5032041;28;20053;-68
2022/07/26 03:59:44;;;;;;;0.00;0.00;;;17.00;84.20;;;;;;5029595;28;20470;-68
2022/07/26 04:02:10;;;;;;;0.28;0.28;;;16.90;84.20;;;;;;5032394;28;20033;-68
2022/07/26 04:04:35;;;;;;;0.00;0.00;;;16.90;84.40;;;;;;4996584;28;20486;-69
2022/07/26 04:07:01;;;;;;;0.00;0.00;;;16.90;84.30;;;;;;5035362;28;20029;-68
2022/07/26 04:09:26;;;;;;;0.00;0.00;;;16.90;84.10;;;;;;5015533;28;20106;-68
2022/07/26 04:11:52;;;;;;;0.00;0.00;;;16.90;84.10;;;;;;5029880;28;20038;-68
2022/07/26 04:14:18;;;;;;;0.00;0.00;;;17.00;84.00;;;;;;5028115;28;20060;-68
2022/07/26 04:16:43;;;;;;;0.00;0.00;;;17.00;83.90;;;;;;5027549;28;20084;-68
2022/07/26 04:19:09;;;;;;;0.00;0.00;;;17.00;83.90;;;;;;5028864;28;20040;-68
2022/07/26 04:21:34;;;;;;;0.00;0.00;;;17.00;83.40;;;;;;5041498;28;20452;-68
2022/07/26 04:24:00;;;;;;;0.00;0.00;;;17.00;83.40;;;;;;5047822;28;20076;-68
2022/07/26 04:26:26;;;;;;;0.05;0.05;;;17.00;83.30;;;;;;5041602;28;20143;-68
2022/07/26 04:28:52;;;;;;;0.00;0.00;;;17.00;83.30;;;;;;5037357;28;20044;-68
2022/07/26 04:31:17;;;;;;;0.00;0.00;;;16.90;83.20;;;;;;5044595;28;20041;-68
2022/07/26 04:33:43;;;;;;;0.00;0.00;;;17.00;83.30;;;;;;5051225;28;20033;-68
2022/07/26 04:36:09;;;;;;;0.00;0.00;;;16.90;83.40;;;;;;5049040;28;20077;-68
2022/07/26 04:38:34;;;;;;;0.00;0.00;;;17.00;83.80;;;;;;5049170;28;20045;-69
2022/07/26 04:41:00;;;;;;;0.00;0.00;;;16.90;84.30;;;;;;5047174;28;20428;-68
2022/07/26 04:43:25;;;;;;;0.00;0.00;;;16.90;84.50;;;;;;5031769;28;20048;-69
2022/07/26 04:45:51;;;;;;;0.00;0.00;;;16.80;84.40;;;;;;5049899;28;20033;-68
2022/07/26 04:48:17;;;;;;;0.00;0.00;;;16.80;84.30;;;;;;5049441;28;20037;-68
2022/07/26 04:50:43;;;;;;;0.00;0.00;;;16.70;84.50;;;;;;5049664;28;20040;-71
2022/07/26 04:53:10;;;;;;;0.00;0.00;;;16.70;84.60;;;;;;5031007;28;20448;-68
2022/07/26 04:55:36;;;;;;;0.00;0.00;;;16.60;84.50;;;;;;5031543;28;20402;-68
2022/07/26 04:58:03;;;;;;;0.00;0.00;;;16.60;84.80;;;;;;5015087;28;20452;-68
2022/07/26 05:00:29;;;;;;;0.00;0.00;;;16.60;84.90;;;;;;5047756;28;20486;-69
2022/07/26 05:02:56;;;;;;;0.10;0.10;;;16.70;84.60;;;;;;5047988;28;20124;-70
2022/07/26 05:05:23;;;;;;;0.00;0.00;;;16.80;84.40;;;;;;5048532;28;20045;-69
2022/07/26 05:07:52;;;;;;;0.00;0.00;;;16.80;84.50;;;;;;5048109;28;20079;-69
2022/07/26 05:10:19;;;;;;;0.00;0.00;;;16.80;84.50;;;;;;5049309;28;20044;-69
2022/07/26 05:12:46;;;;;;;0.00;0.00;;;16.80;84.50;;;;;;5044582;28;20080;-69
2022/07/26 05:15:12;;;;;;;0.00;0.00;;;16.90;84.40;;;;;;5048704;28;20743;-68
2022/07/26 05:17:39;;;;;;;0.55;0.55;;;16.90;84.10;;;;;;5047779;28;20056;-68
2022/07/26 05:20:06;;;;;;;0.00;0.00;;;16.90;84.30;;;;;;5048610;28;20064;-69
2022/07/26 05:22:33;;;;;;;0.00;0.00;;;16.90;84.30;;;;;;5048294;28;20049;-68
2022/07/26 05:24:59;;;;;;;0.00;0.00;;;16.90;84.10;;;;;;5047925;28;20041;-68
2022/07/26 05:27:25;;;;;;;0.00;0.00;;;17.00;84.10;;;;;;5048537;28;20039;-69
2022/07/26 05:29:50;;;;;;;0.00;0.00;;;16.90;83.70;;;;;;5046795;28;20120;-67
2022/07/26 05:32:17;;;;;;;0.00;0.00;;;16.90;83.60;;;;;;5048570;28;20729;-67
2022/07/26 05:34:42;;;;;;;0.00;0.00;;;17.00;83.50;;;;;;5048234;28;20041;-68
2022/07/26 05:37:08;;;;;;;0.00;0.00;;;16.90;82.30;;;;;;5047970;28;20037;-68
2022/07/26 05:39:34;;;;;;;0.00;0.00;;;16.90;82.00;;;;;;5048658;28;20053;-68
2022/07/26 05:41:59;;;;;;;0.00;0.00;;;17.00;81.50;;;;;;5047612;28;20057;-67
2022/07/26 05:44:25;;;;;;;0.00;0.00;;;16.90;81.70;;;;;;5047436;28;20165;-67
2022/07/26 05:46:50;;;;;;;0.00;0.00;;;16.90;81.60;;;;;;5047944;28;20052;-67
2022/07/26 05:49:16;;;;;;;0.00;0.00;;;16.90;81.70;;;;;;5048731;28;20044;-67
2022/07/26 05:51:42;;;;;;;0.20;0.20;;;17.00;81.50;;;;;;5048638;28;20466;-67
2022/07/26 05:54:07;;;;;;;0.00;0.00;;;17.00;81.50;;;;;;5030848;28;20045;-68
2022/07/26 05:56:33;;;;;;;0.00;0.00;;;17.00;81.50;;;;;;5030707;28;20052;-68
2022/07/26 05:58:59;;;;;;;0.00;0.00;;;17.00;81.30;;;;;;5013728;28;20045;-68
2022/07/26 06:01:24;;;;;;;0.00;0.00;;;17.00;81.20;;;;;;5032734;28;20052;-68
2022/07/26 06:03:50;;;;;;;0.00;0.00;;;17.00;80.80;;;;;;5014822;28;20040;-68
2022/07/26 06:06:16;;;;;;;0.00;0.00;;;17.00;79.70;;;;;;5043456;28;20044;-68
2022/07/26 06:08:41;;;;;;;0.00;0.00;;;17.10;80.00;;;;;;5051967;28;20250;-71
2022/07/26 06:11:07;;;;;;;0.00;0.00;;;17.10;80.20;;;;;;5052795;28;20166;-70
2022/07/26 06:13:33;;;;;;;0.00;0.00;;;17.10;80.00;;;;;;5053249;28;20052;-69
2022/07/26 06:15:59;;;;;;;0.00;0.00;;;17.20;80.10;;;;;;5051560;28;20041;-68
2022/07/26 06:18:25;;;;;;;0.32;0.32;;;17.20;79.80;;;;;;5050820;28;20037;-68
2022/07/26 06:20:51;;;;;;;0.00;0.00;;;17.20;79.70;;;;;;5051393;28;20128;-69
2022/07/26 06:23:16;;;;;;;0.00;0.00;;;17.30;79.50;;;;;;5034034;28;20053;-68
2022/07/26 06:25:42;;;;;;;0.00;0.00;;;17.30;79.50;;;;;;5050202;28;20048;-69
2022/07/26 06:28:09;;;;;;;0.00;0.00;;;17.20;79.60;;;;;;5051576;28;20037;-69
2022/07/26 06:30:36;;;;;;;0.00;0.00;;;17.20;79.90;;;;;;5051590;28;20080;-69
2022/07/26 06:33:01;;;;;;;0.03;0.03;;;17.10;81.00;;;;;;5051961;28;20060;-71
2022/07/26 06:35:29;;;;;;;0.00;0.00;;;17.10;81.20;;;;;;5051919;28;20037;-68
2022/07/26 06:37:59;;;;;;;0.10;0.10;;;17.10;81.00;;;;;;5051956;28;20120;-70
2022/07/26 06:40:24;;;;;;;0.00;0.00;;;17.10;80.80;;;;;;5048801;28;20080;-70
2022/07/26 06:42:50;;;;;;;0.08;0.08;;;17.10;80.60;;;;;;5017318;28;20088;-70
2022/07/26 06:45:16;;;;;;;0.00;0.00;;;17.10;80.60;;;;;;5035048;28;20049;-70
2022/07/26 06:47:41;;;;;;;0.00;0.00;;;17.20;80.60;;;;;;5048135;28;20044;-69
2022/07/26 06:50:07;;;;;;;0.15;0.15;;;17.20;80.30;;;;;;5038560;28;20558;-69
2022/07/26 06:52:33;;;;;;;0.00;0.00;;;17.30;79.90;;;;;;5005803;28;20048;-69
2022/07/26 06:55:00;;;;;;;0.00;0.00;;;17.30;79.70;;;;;;5045726;28;20037;-69
2022/07/26 06:57:25;;;;;;;0.00;0.00;;;17.40;78.40;;;;;;5030373;28;20187;-68
2022/07/26 06:59:51;;;;;;;0.00;0.00;;;17.40;78.50;;;;;;5029115;28;20112;-69
2022/07/26 07:02:17;;;;;;;0.00;0.00;;;17.50;78.30;;;;;;5018355;28;20397;-69
2022/07/26 07:04:43;;;;;;;0.00;0.00;;;17.60;77.80;;;;;;4999044;28;20762;-69
2022/07/26 07:07:08;;;;;;;0.00;0.00;;;17.60;77.70;;;;;;5034267;28;20124;-70
2022/07/26 07:09:34;;;;;;;0.00;0.00;;;17.60;77.00;;;;;;5018845;28;20695;-69
2022/07/26 07:12:02;;;;;;;0.10;0.10;;;17.50;78.00;;;;;;5024429;28;20326;-68
2022/07/26 07:14:28;;;;;;;0.00;0.00;;;17.30;78.60;;;;;;5019701;28;20685;-69
2022/07/26 07:16:55;;;;;;;0.10;0.10;;;17.20;78.90;;;;;;5028695;28;20056;-69
2022/07/26 07:19:21;;;;;;;0.00;0.00;;;17.10;78.60;;;;;;5027325;28;20053;-69
2022/07/26 07:21:47;;;;;;;0.00;0.00;;;17.00;78.80;;;;;;5034258;28;20041;-70
2022/07/26 07:24:13;;;;;;;0.00;0.00;;;16.90;79.30;;;;;;5042628;28;20045;-70
2022/07/26 07:26:40;;;;;;;0.00;0.00;;;16.80;79.60;;;;;;5027875;28;20078;-69
2022/07/26 07:29:08;;;;;;;0.00;0.00;;;16.80;79.20;;;;;;5043304;28;20048;-69
2022/07/26 07:31:34;;;;;;;0.00;0.00;;;16.80;78.60;;;;;;5049553;28;20120;-69
2022/07/26 07:33:59;;;;;;;0.00;0.00;;;16.80;77.40;;;;;;5050020;28;20175;-69
2022/07/26 07:36:26;;;;;;;0.00;0.00;;;16.90;77.20;;;;;;5047509;28;20646;-69
2022/07/26 07:38:51;;;;;;;0.00;0.00;;;17.10;77.00;;;;;;5048400;28;20053;-69
2022/07/26 07:41:17;;;;;;;0.00;0.00;;;17.10;76.30;;;;;;5031803;28;20061;-68
2022/07/26 07:43:43;;;;;;;0.00;0.00;;;17.30;75.60;;;;;;5046914;28;20045;-69
2022/07/26 07:46:09;;;;;;;0.00;0.00;;;17.40;75.70;;;;;;5049375;28;20452;-69
2022/07/26 07:48:36;;;;;;;0.00;0.00;;;17.50;75.10;;;;;;5049643;28;20041;-69
2022/07/26 07:51:02;;;;;;;0.00;0.00;;;17.60;74.60;;;;;;5049905;28;20362;-69
2022/07/26 07:53:27;;;;;;;0.47;0.47;;;17.60;74.30;;;;;;5049327;28;20048;-69
2022/07/26 07:55:53;;;;;;;0.00;0.00;;;17.60;74.80;;;;;;5049213;28;20040;-69
2022/07/26 07:58:19;;;;;;;0.00;0.00;;;17.70;74.80;;;;;;5050073;28;20102;-69
2022/07/26 08:00:44;;;;;;;0.00;0.00;;;17.80;74.40;;;;;;5032479;28;20045;-69
2022/07/26 08:03:10;;;;;;;0.08;0.08;;;17.80;74.50;;;;;;5030906;28;20572;-70
2022/07/26 08:05:36;;;;;;;0.00;0.00;;;17.90;75.10;;;;;;5036948;28;20037;-70
2022/07/26 08:08:02;;;;;;;10.02;2.28;;;17.90;74.50;;;;;;5032771;28;20044;-70
2022/07/26 08:10:28;;;;;;;0.00;0.00;;;17.90;74.70;;;;;;5032140;28;20053;-69
2022/07/26 08:12:54;;;;;;;0.00;0.00;;;17.60;75.70;;;;;;5031259;28;20048;-69
2022/07/26 08:15:22;;;;;;;0.10;0.10;;;17.50;76.60;;;;;;5048854;28;20382;-69
2022/07/26 08:17:49;;;;;;;0.05;0.05;;;17.50;77.00;;;;;;5048675;28;20048;-70
2022/07/26 08:20:15;;;;;;;0.00;0.00;;;17.40;77.60;;;;;;5046197;28;20055;-69
2022/07/26 08:22:41;;;;;;;1.10;1.02;;;17.40;77.90;;;;;;5048953;28;20084;-70
2022/07/26 08:25:07;;;;;;;0.00;0.00;;;17.50;77.90;;;;;;5047555;28;20450;-69
2022/07/26 08:27:33;;;;;;;0.00;0.00;;;17.60;78.40;;;;;;5031253;28;20136;-70
2022/07/26 08:29:59;;;;;;;0.22;0.22;;;17.60;77.50;;;;;;5050531;28;20160;-69
2022/07/26 08:32:24;;;;;;;0.00;0.00;;;17.60;76.50;;;;;;5048671;28;20057;-70
2022/07/26 08:34:50;;;;;;;0.10;0.10;;;17.80;76.00;;;;;;5036779;28;20116;-70
2022/07/26 08:37:16;;;;;;;0.00;0.00;;;17.80;74.50;;;;;;5063170;28;20052;-69
2022/07/26 08:39:41;;;;;;;0.00;0.00;;;18.00;75.30;;;;;;5034768;28;20045;-69
2022/07/26 08:42:19;;;;;;;0.00;0.00;;;18.10;74.90;;;;;;5049575;28;20071;-73
2022/07/26 08:44:46;;;;;;;0.00;0.00;;;18.00;74.80;;;;;;5049981;28;20567;-70
2022/07/26 08:47:13;;;;;;;0.00;0.00;;;17.60;76.80;;;;;;5049126;28;20053;-69
2022/07/26 08:49:39;;;;;;;0.00;0.00;;;17.50;77.20;;;;;;5029467;28;20048;-69
2022/07/26 08:52:05;;;;;;;0.00;0.00;;;17.50;76.90;;;;;;5048739;28;20056;-69
2022/07/26 08:54:31;;;;;;;0.00;0.00;;;17.30;77.80;;;;;;5044258;28;20044;-69
2022/07/26 08:56:58;;;;;;;0.00;0.00;;;17.30;77.90;;;;;;5048331;28;20049;-69
2022/07/26 08:59:23;;;;;;;0.65;0.65;;;17.30;77.60;;;;;;5045711;28;20065;-69
2022/07/26 09:02:02;;;;;;;0.00;0.00;;;17.30;77.80;;;;;;5047288;28;20160;-68
2022/07/26 09:04:36;;;;;;;0.70;0.32;;;17.30;77.70;;;;;;5026773;28;20064;-68
2022/07/26 09:07:10;;;;;;;0.00;0.00;;;17.30;77.90;;;;;;5047688;28;20052;-68
2022/07/26 09:10:03;;;;;;;0.30;0.30;;;17.40;78.00;;;;;;5041758;28;20052;-68
2022/07/26 09:12:29;;;;;;;0.00;0.00;;;17.60;77.90;;;;;;5048268;28;20054;-69
2022/07/26 09:14:56;;;;;;;0.30;0.30;;;17.70;76.90;;;;;;5047586;28;20048;-69
2022/07/26 09:17:24;;;;;;;0.00;0.00;;;17.80;76.50;;;;;;5047494;28;20045;-69
2022/07/26 09:20:23;;;;;;;0.08;0.08;;;17.90;76.20;;;;;;5043318;28;20277;-69
2022/07/26 09:22:59;;;;;;;0.52;0.52;;;17.90;75.20;;;;;;5004444;28;20417;-69
2022/07/26 09:25:26;;;;;;;0.00;0.00;;;18.00;73.20;;;;;;5027771;28;20052;-68
2022/07/26 09:27:52;;;;;;;0.25;0.25;;;17.70;71.80;;;;;;5048586;28;20099;-69
2022/07/26 09:30:19;;;;;;;0.00;0.00;;;17.60;72.40;;;;;;5028156;28;20091;-69
2022/07/26 09:33:04;;;;;;;0.00;0.00;;;17.70;72.30;;;;;;5027636;28;20041;-69
2022/07/26 09:35:36;;;;;;;0.00;0.00;;;17.70;72.40;;;;;;5049157;28;20049;-69
2022/07/26 09:38:13;;;;;;;0.10;0.10;;;17.70;72.60;;;;;;5021070;28;20044;-69
2022/07/26 09:40:39;;;;;;;0.10;0.10;;;17.80;72.20;;;;;;5030053;28;20119;-69
2022/07/26 09:43:06;;;;;;;0.00;0.00;;;17.80;72.00;;;;;;5051588;28;20432;-69
2022/07/26 09:45:33;;;;;;;0.00;0.00;;;17.90;71.20;;;;;;5034641;28;20088;-70
2022/07/26 09:47:59;;;;;;;0.00;0.00;;;18.00;69.60;;;;;;5051719;28;20048;-69
2022/07/26 09:50:32;;;;;;;0.25;0.25;;;18.00;68.00;;;;;;5051816;28;20053;-69
2022/07/26 09:53:07;;;;;;;0.00;0.00;;;18.00;67.60;;;;;;5051776;28;20033;-69
2022/07/26 09:55:42;;;;;;;0.00;0.00;;;18.10;66.50;;;;;;5052259;28;20144;-69
2022/07/26 09:58:12;;;;;;;0.05;0.05;;;18.30;66.60;;;;;;5024713;28;20112;-69
2022/07/26 10:00:38;;;;;;;0.00;0.00;;;18.40;64.80;;;;;;5050998;28;20096;-70
2022/07/26 10:03:03;;;;;;;0.00;0.00;;;18.30;63.30;;;;;;5032965;28;20068;-70
2022/07/26 10:05:31;;;;;;;0.00;0.00;;;18.30;66.20;;;;;;5051689;28;20060;-71
2022/07/26 10:07:58;;;;;;;0.00;0.00;;;18.40;66.50;;;;;;5051742;28;20036;-70
2022/07/26 10:10:40;;;;;;;0.00;0.00;;;18.40;62.80;;;;;;5034090;28;20438;-71
2022/07/26 10:13:07;;;;;;;0.00;0.00;;;18.40;64.00;;;;;;5050647;28;20048;-71
2022/07/26 10:15:50;;;;;;;0.00;0.00;;;18.50;63.80;;;;;;5051371;28;20444;-71
2022/07/26 10:18:36;;;;;;;0.10;0.10;;;18.60;63.90;;;;;;5049813;28;20126;-71
2022/07/26 10:21:22;;;;;;;0.00;0.00;;;18.80;62.00;;;;;;5050571;28;20053;-72
2022/07/26 10:23:55;;;;;;;0.00;0.00;;;18.80;61.90;;;;;;5047788;28;20052;-69
2022/07/26 10:26:30;;;;;;;0.45;0.45;;;19.00;61.80;;;;;;5033903;28;20041;-70
2022/07/26 10:29:15;;;;;;;0.00;0.00;;;19.00;61.40;;;;;;5051968;28;20395;-70
2022/07/26 10:31:47;;;;;;;1.45;0.40;;;19.10;61.10;;;;;;5033942;28;20084;-70
2022/07/26 10:34:30;;;;;;;0.00;0.00;;;19.00;58.20;;;;;;5050713;28;20532;-71
2022/07/26 10:37:03;;;;;;;0.00;0.00;;;19.00;58.40;;;;;;5051749;28;20574;-70
2022/07/26 10:39:29;;;;;;;0.20;0.20;;;19.00;60.00;;;;;;5051975;28;20477;-69
2022/07/26 10:42:08;;;;;;;0.00;0.00;;;19.20;60.00;;;;;;5050830;28;20088;-70
2022/07/26 10:44:40;;;;;;;0.00;0.00;;;19.30;60.60;;;;;;5051679;28;20059;-70
2022/07/26 10:47:06;;;;;;;0.00;0.00;;;19.30;60.50;;;;;;5032512;28;20123;-70
2022/07/26 10:49:34;;;;;;;0.00;0.00;;;19.30;59.20;;;;;;5051456;28;20144;-70
2022/07/26 10:52:07;;;;;;;0.10;0.10;;;19.40;59.70;;;;;;5050831;28;20055;-71
2022/07/26 10:54:55;;;;;;;0.00;0.00;;;19.30;58.60;;;;;;5035991;28;20391;-69
2022/07/26 10:57:21;;;;;;;0.00;0.00;;;19.20;57.50;;;;;;5038202;28;20048;-70
2022/07/26 10:59:46;;;;;;;0.00;0.00;;;19.30;59.00;;;;;;5051231;28;20682;-69
2022/07/26 11:02:20;;;;;;;0.00;0.00;;;19.20;57.60;;;;;;5051098;28;20041;-69
2022/07/26 11:04:47;;;;;;;0.00;0.00;;;19.20;59.50;;;;;;5032407;28;20065;-69
2022/07/26 11:07:13;;;;;;;0.00;0.00;;;19.30;58.40;;;;;;5051008;28;20489;-69
2022/07/26 11:09:38;;;;;;;0.60;0.60;;;19.40;59.20;;;;;;5051568;28;20102;-70
2022/07/26 11:12:20;;;;;;;0.00;0.00;;;19.30;56.80;;;;;;5051483;28;20037;-69
2022/07/26 11:14:46;;;;;;;0.00;0.00;;;19.20;58.20;;;;;;5050747;28;20090;-69
2022/07/26 11:17:28;;;;;;;0.63;0.63;;;19.40;56.60;;;;;;5051954;28;20053;-69
2022/07/26 11:19:54;;;;;;;;;;;19.50;57.10;;;;;;5049888;28;20508;-69
2022/07/26 11:22:20;;;;;;;0.00;0.00;;;19.60;57.20;;;;;;5045654;28;20095;-70
2022/07/26 11:24:46;;;;;;;0.10;0.10;;;19.70;57.50;;;;;;5031070;28;20049;-69
2022/07/26 11:27:12;;;;;;;0.00;0.00;;;19.70;57.00;;;;;;4997137;28;20045;-70
2022/07/26 11:29:39;;;;;;;0.00;0.00;;;19.60;57.90;;;;;;5031237;28;20867;-69
2022/07/26 11:32:07;;;;;;;0.00;0.00;;;19.50;56.40;;;;;;5013470;28;20050;-70
2022/07/26 11:34:33;;;;;;;0.00;0.00;;;19.50;57.10;;;;;;5030169;28;20041;-70
2022/07/26 11:37:02;;;;;;;0.43;0.43;;;19.40;57.30;;;;;;5030307;28;20475;-70
2022/07/26 11:39:30;;;;;;;0.00;0.00;;;19.30;56.90;;;;;;5010803;28;20049;-70
2022/07/26 11:42:03;;;;;;;0.00;0.00;;;19.20;57.20;;;;;;5052249;28;20045;-70
2022/07/26 11:44:29;;;;;;;0.32;0.32;;;19.30;57.40;;;;;;5050704;28;20084;-69
2022/07/26 11:46:56;;;;;;;0.00;0.00;;;19.30;55.70;;;;;;5048640;28;20040;-69
2022/07/26 11:49:29;;;;;;;0.00;0.00;;;19.30;55.40;;;;;;5031754;28;20167;-69
2022/07/26 11:51:56;;;;;;;0.00;0.00;;;19.30;56.50;;;;;;5032121;28;20043;-69
2022/07/26 11:54:24;;;;;;;0.00;0.00;;;19.30;57.10;;;;;;5035975;28;20175;-69
2022/07/26 11:56:56;;;;;;;0.00;0.00;;;19.50;57.30;;;;;;5031850;28;20438;-69
2022/07/26 11:59:25;;;;;;;0.00;0.00;;;19.60;55.30;;;;;;5049970;28;20055;-69
2022/07/26 12:01:51;;;;;;;0.00;0.00;;;19.60;55.10;;;;;;5050343;28;20071;-69
2022/07/26 12:04:28;;;;;;;0.00;0.00;;;19.80;57.10;;;;;;5049500;28;20045;-69
2022/07/26 12:06:56;;;;;;;0.10;0.10;;;20.00;54.60;;;;;;5019098;28;20830;-68
2022/07/26 12:09:33;;;;;;;0.00;0.00;;;20.10;54.60;;;;;;5042315;28;20087;-71
2022/07/26 12:11:59;;;;;;;0.00;0.00;;;20.20;52.80;;;;;;5049904;28;20075;-71
2022/07/26 12:14:30;;;;;;;0.00;0.00;;;20.30;55.80;;;;;;5031752;28;20049;-71
2022/07/26 12:16:57;;;;;;;0.00;0.00;;;20.10;55.20;;;;;;5049056;28;20040;-72
2022/07/26 12:19:28;;;;;;;0.00;0.00;;;20.10;55.80;;;;;;5048605;28;20124;-71
2022/07/26 12:22:06;;;;;;;0.10;0.10;;;20.00;56.20;;;;;;5046300;28;20037;-71
2022/07/26 12:24:56;;;;;;;0.00;0.00;;;19.80;56.50;;;;;;5049773;28;20708;-71
2022/07/26 12:27:23;;;;;;;0.00;0.00;;;19.80;56.00;;;;;;5048770;28;20382;-71
2022/07/26 12:30:14;;;;;;;0.00;0.00;;;19.90;55.70;;;;;;5031722;28;20041;-70
2022/07/26 12:32:41;;;;;;;0.00;0.00;;;19.80;55.60;;;;;;5048991;28;20065;-71
2022/07/26 12:35:26;;;;;;;0.00;0.00;;;19.90;56.70;;;;;;5050483;28;20049;-71
2022/07/26 12:37:52;;;;;;;0.47;0.47;;;20.00;54.20;;;;;;5050435;28;20719;-71
2022/07/26 12:40:20;;;;;;;0.00;0.00;;;20.00;56.00;;;;;;5048372;28;20163;-71
2022/07/26 12:42:48;;;;;;;0.00;0.00;;;20.00;55.60;;;;;;5061373;28;20080;-71
2022/07/26 12:45:19;;;;;;;0.00;0.00;;;20.00;55.50;;;;;;5049341;28;20402;-71
2022/07/26 12:47:49;;;;;;;0.00;0.00;;;20.00;55.40;;;;;;5048007;28;20090;-71
2022/07/26 12:50:16;;;;;;;0.00;0.00;;;20.00;53.30;;;;;;5021420;28;20090;-71